createdAt,value
2022-12-15T00:01:20.211Z,6.41
2022-12-15T00:04:05.337Z,6.27
2022-12-15T00:06:50.148Z,6.21
2022-12-15T00:09:34.908Z,6.26
2022-12-15T00:12:19.937Z,6.33
2022-12-15T00:15:04.741Z,6.20
2022-12-15T00:17:49.602Z,6.11
2022-12-15T00:20:34.205Z,6.19
2022-12-15T00:23:25.616Z,6.21
2022-12-15T00:26:10.400Z,6.08
2022-12-15T00:28:54.947Z,6.18
2022-12-15T00:31:39.878Z,6.29
2022-12-15T00:34:24.669Z,6.17
2022-12-15T00:37:09.640Z,6.18
2022-12-15T00:39:35.943Z,6.14
2022-12-15T00:42:02.247Z,5.88
2022-12-15T00:44:28.561Z,5.63
2022-12-15T00:46:54.913Z,5.61
2022-12-15T00:49:48.638Z,5.70
2022-12-15T00:52:33.869Z,5.87
2022-12-15T00:55:18.587Z,6.15
2022-12-15T00:58:03.227Z,6.06
2022-12-15T01:00:48.141Z,5.90
2022-12-15T01:03:34.221Z,5.98
2022-12-15T01:06:19.289Z,6.11
2022-12-15T01:09:04.002Z,6.13
2022-12-15T01:11:48.747Z,6.04
2022-12-15T01:14:33.530Z,5.99
2022-12-15T01:17:18.209Z,6.01
2022-12-15T01:20:03.053Z,6.07
2022-12-15T01:22:29.657Z,6.10
2022-12-15T01:24:55.945Z,6.25
2022-12-15T01:27:22.210Z,6.26
2022-12-15T01:29:48.502Z,6.24
2022-12-15T01:32:14.806Z,6.28
2022-12-15T01:34:41.136Z,6.07
2022-12-15T01:37:07.424Z,6.14
2022-12-15T01:39:52.358Z,6.17
2022-12-15T01:42:18.653Z,6.20
2022-12-15T01:44:46.096Z,6.31
2022-12-15T01:47:12.491Z,6.35
2022-12-15T01:49:38.809Z,6.40
2022-12-15T01:52:05.648Z,6.41
2022-12-15T01:54:36.667Z,6.36
2022-12-15T01:57:04.065Z,6.38
2022-12-15T01:59:34.345Z,6.31
2022-12-15T02:02:00.747Z,6.18
2022-12-15T02:04:27.075Z,6.12
2022-12-15T02:06:53.409Z,6.17
2022-12-15T02:09:19.729Z,6.24
2022-12-15T02:11:56.141Z,6.18
2022-12-15T02:14:41.279Z,6.25
2022-12-15T02:17:07.556Z,6.21
2022-12-15T02:19:43.589Z,6.04
2022-12-15T02:22:15.877Z,5.88
2022-12-15T02:24:49.757Z,6.00
2022-12-15T02:27:34.790Z,6.04
2022-12-15T02:30:30.616Z,6.01
2022-12-15T02:33:29.652Z,5.95
2022-12-15T02:35:57.314Z,6.02
2022-12-15T02:38:34.422Z,5.98
2022-12-15T02:41:01.017Z,6.07
2022-12-15T02:43:27.906Z,6.12
2022-12-15T02:46:13.482Z,6.17
2022-12-15T02:48:52.503Z,6.13
2022-12-15T02:51:24.092Z,6.24
2022-12-15T02:53:50.302Z,6.21
2022-12-15T02:56:35.395Z,6.17
2022-12-15T02:59:03.635Z,6.09
2022-12-15T03:01:37.383Z,6.01
2022-12-15T03:04:04.482Z,5.99
2022-12-15T03:06:30.742Z,5.92
2022-12-15T03:08:57.050Z,6.05
2022-12-15T03:11:23.311Z,5.99
2022-12-15T03:13:50.424Z,5.91
2022-12-15T03:16:16.779Z,5.88
2022-12-15T03:18:43.101Z,5.84
2022-12-15T03:21:09.398Z,5.75
2022-12-15T03:23:35.656Z,5.70
2022-12-15T03:26:01.960Z,5.66
2022-12-15T03:28:28.705Z,5.70
2022-12-15T03:30:56.307Z,5.82
2022-12-15T03:33:22.581Z,6.01
2022-12-15T03:35:49.714Z,6.11
2022-12-15T03:38:15.993Z,6.20
2022-12-15T03:40:42.324Z,5.99
2022-12-15T03:43:08.608Z,5.68
2022-12-15T03:45:34.969Z,5.54
2022-12-15T03:48:01.568Z,5.59
2022-12-15T03:50:28.153Z,5.67
2022-12-15T03:53:03.655Z,5.70
2022-12-15T03:55:30.018Z,5.64
2022-12-15T03:57:56.489Z,5.73
2022-12-15T04:00:22.874Z,5.81
2022-12-15T04:02:50.374Z,5.85
2022-12-15T04:05:20.748Z,5.77
2022-12-15T04:07:47.059Z,5.73
2022-12-15T04:10:13.335Z,5.78
2022-12-15T04:12:39.736Z,5.78
2022-12-15T04:15:06.813Z,5.90
2022-12-15T04:17:33.100Z,6.00
2022-12-15T04:20:11.323Z,6.00
2022-12-15T04:22:37.655Z,6.09
2022-12-15T04:25:23.098Z,6.03
2022-12-15T04:28:07.843Z,6.02
2022-12-15T04:30:52.631Z,6.04
2022-12-15T04:33:38.324Z,5.96
2022-12-15T04:36:23.862Z,5.75
2022-12-15T04:39:08.597Z,5.77
2022-12-15T04:41:53.243Z,5.85
2022-12-15T04:44:38.001Z,5.82
2022-12-15T04:47:23.073Z,5.90
2022-12-15T04:50:07.828Z,5.88
2022-12-15T04:52:52.609Z,5.94
2022-12-15T04:55:37.346Z,5.92
2022-12-15T04:58:25.687Z,5.81
2022-12-15T05:01:10.807Z,5.92
2022-12-15T05:03:55.581Z,6.00
2022-12-15T05:06:40.284Z,6.06
2022-12-15T05:09:25.085Z,6.02
2022-12-15T05:12:09.909Z,6.07
2022-12-15T05:14:54.736Z,6.05
2022-12-15T05:17:41.602Z,6.09
2022-12-15T05:20:27.265Z,6.22
2022-12-15T05:23:12.992Z,6.31
2022-12-15T05:25:57.908Z,6.25
2022-12-15T05:28:42.704Z,6.28
2022-12-15T05:31:27.582Z,6.36
2022-12-15T05:33:57.194Z,6.35
2022-12-15T05:36:27.348Z,6.38
2022-12-15T05:38:53.613Z,6.41
2022-12-15T05:41:20.105Z,6.46
2022-12-15T05:43:46.457Z,6.38
2022-12-15T05:46:12.893Z,6.10
2022-12-15T05:48:39.219Z,5.96
2022-12-15T05:51:05.901Z,6.14
2022-12-15T05:53:32.667Z,6.19
2022-12-15T05:56:02.845Z,6.19
2022-12-15T05:58:29.122Z,6.27
2022-12-15T06:00:55.456Z,6.27
2022-12-15T06:03:21.726Z,6.25
2022-12-15T06:05:53.075Z,6.20
2022-12-15T06:08:23.820Z,6.13
2022-12-15T06:10:54.409Z,6.07
2022-12-15T06:13:21.274Z,6.05
2022-12-15T06:15:57.899Z,6.04
2022-12-15T06:18:24.561Z,6.09
2022-12-15T06:20:56.434Z,6.19
2022-12-15T06:23:22.993Z,6.35
2022-12-15T06:25:49.266Z,6.47
2022-12-15T06:28:16.731Z,6.46
2022-12-15T06:30:43.013Z,6.30
2022-12-15T06:33:09.291Z,6.25
2022-12-15T06:35:36.205Z,6.40
2022-12-15T06:38:02.542Z,6.45
2022-12-15T06:40:31.015Z,6.27
2022-12-15T06:42:59.678Z,6.19
2022-12-15T06:45:25.959Z,6.32
2022-12-15T06:47:55.341Z,6.32
2022-12-15T06:50:25.847Z,6.27
2022-12-15T06:52:52.127Z,6.27
2022-12-15T06:55:18.417Z,6.22
2022-12-15T06:57:47.043Z,6.08
2022-12-15T07:00:13.577Z,5.97
2022-12-15T07:02:41.565Z,6.19
2022-12-15T07:05:09.192Z,6.20
2022-12-15T07:07:35.463Z,6.20
2022-12-15T07:10:01.747Z,6.28
2022-12-15T07:12:28.014Z,6.32
2022-12-15T07:14:54.274Z,6.43
2022-12-15T07:17:20.553Z,6.54
2022-12-15T07:19:46.848Z,6.60
2022-12-15T07:22:13.238Z,6.73
2022-12-15T07:24:39.514Z,6.54
2022-12-15T07:27:05.790Z,6.36
2022-12-15T07:29:32.144Z,6.47
2022-12-15T07:32:00.703Z,6.40
2022-12-15T07:34:27.066Z,6.14
2022-12-15T07:36:53.349Z,6.05
2022-12-15T07:39:19.636Z,6.03
2022-12-15T07:41:46.673Z,6.25
2022-12-15T07:44:14.624Z,6.46
2022-12-15T07:46:41.023Z,6.62
2022-12-15T07:49:07.321Z,6.55
2022-12-15T07:51:33.608Z,6.43
2022-12-15T07:53:59.972Z,6.50
2022-12-15T07:56:26.333Z,6.45
2022-12-15T07:58:53.009Z,6.45
2022-12-15T08:01:19.408Z,6.35
2022-12-15T08:03:45.885Z,6.23
2022-12-15T08:06:12.969Z,6.07
2022-12-15T08:08:39.375Z,6.02
2022-12-15T08:11:08.045Z,6.09
2022-12-15T08:16:20.918Z,6.31
2022-12-15T08:18:47.208Z,6.42
2022-12-15T08:21:14.466Z,6.47
2022-12-15T08:23:40.751Z,6.68
2022-12-15T08:26:13.832Z,6.90
2022-12-15T08:28:40.295Z,7.05
2022-12-15T08:31:07.587Z,7.02
2022-12-15T08:33:34.399Z,7.04
2022-12-15T08:36:02.638Z,7.06
2022-12-15T08:38:29.332Z,6.86
2022-12-15T08:40:55.612Z,6.70
2022-12-15T08:43:21.884Z,6.72
2022-12-15T08:45:48.201Z,6.90
2022-12-15T08:48:16.638Z,7.07
2022-12-15T08:50:44.080Z,7.25
2022-12-15T08:53:32.798Z,7.44
2022-12-15T08:56:01.628Z,7.58
2022-12-15T08:58:27.940Z,7.65
2022-12-15T09:00:59.273Z,7.70
2022-12-15T09:03:25.565Z,7.78
2022-12-15T09:05:51.844Z,7.89
2022-12-15T09:08:18.123Z,7.73
2022-12-15T09:10:44.405Z,7.67
2022-12-15T09:13:10.660Z,7.61
2022-12-15T09:16:07.675Z,7.67
2022-12-15T09:18:23.308Z,7.83
2022-12-15T09:20:49.610Z,7.65
2022-12-15T09:23:15.889Z,7.44
2022-12-15T09:25:42.526Z,7.64
2022-12-15T09:28:08.810Z,7.63
2022-12-15T09:30:35.143Z,7.52
2022-12-15T09:33:01.471Z,7.53
2022-12-15T09:35:27.791Z,7.50
2022-12-15T09:37:54.051Z,7.61
2022-12-15T09:40:20.320Z,7.83
2022-12-15T09:42:59.786Z,7.89
2022-12-15T09:45:37.379Z,7.97
2022-12-15T09:48:05.106Z,7.96
2022-12-15T09:50:33.916Z,7.93
2022-12-15T09:53:00.257Z,8.00
2022-12-15T09:55:27.452Z,7.78
2022-12-15T10:00:55.632Z,7.25
2022-12-15T10:03:35.103Z,6.87
2022-12-15T10:06:18.961Z,6.85
2022-12-15T10:08:53.709Z,7.29
2022-12-15T10:11:21.577Z,7.68
2022-12-15T10:13:48.064Z,7.72
2022-12-15T10:16:24.201Z,7.77
2022-12-15T10:18:59.434Z,8.04
2022-12-15T10:21:28.036Z,8.15
2022-12-15T10:23:55.124Z,8.36
2022-12-15T10:26:23.257Z,8.42
2022-12-15T10:28:59.173Z,8.41
2022-12-15T10:31:54.816Z,8.37
2022-12-15T10:34:30.079Z,8.31
2022-12-15T10:36:56.532Z,8.27
2022-12-15T10:39:23.307Z,8.26
2022-12-15T10:42:08.443Z,8.25
2022-12-15T10:44:38.143Z,8.32
2022-12-15T10:47:11.573Z,8.30
2022-12-15T10:49:38.055Z,8.34
2022-12-15T10:52:04.427Z,8.28
2022-12-15T10:54:36.781Z,8.21
2022-12-15T10:57:14.477Z,7.74
2022-12-15T10:59:40.794Z,7.43
2022-12-15T11:02:27.706Z,7.84
2022-12-15T11:04:54.690Z,8.10
2022-12-15T11:07:21.324Z,8.30
2022-12-15T11:09:47.613Z,8.33
2022-12-15T11:12:36.092Z,8.36
2022-12-15T11:15:02.642Z,8.29
2022-12-15T11:17:36.412Z,8.30
2022-12-15T11:20:03.886Z,8.25
2022-12-15T11:22:39.841Z,7.97
2022-12-15T11:25:12.114Z,8.00
2022-12-15T11:27:38.881Z,8.09
2022-12-15T11:30:15.313Z,8.32
2022-12-15T11:32:42.706Z,8.42
2022-12-15T11:35:15.853Z,8.50
2022-12-15T11:37:42.949Z,8.52
2022-12-15T11:40:28.024Z,8.53
2022-12-15T11:42:54.307Z,8.28
2022-12-15T11:45:35.504Z,8.13
2022-12-15T11:48:04.767Z,8.36
2022-12-15T11:50:41.205Z,8.59
2022-12-15T11:53:10.057Z,8.47
2022-12-15T11:55:41.436Z,8.53
2022-12-15T11:58:10.858Z,8.60
2022-12-15T12:00:42.233Z,8.40
2022-12-15T12:03:14.770Z,8.01
2022-12-15T12:05:44.019Z,8.15
2022-12-15T12:08:32.603Z,7.83
2022-12-15T12:11:02.205Z,7.39
2022-12-15T12:13:30.257Z,7.41
2022-12-15T12:15:59.931Z,7.44
2022-12-15T12:18:27.433Z,7.21
2022-12-15T12:20:58.884Z,7.29
2022-12-15T12:23:31.604Z,7.37
2022-12-15T12:26:02.989Z,7.55
2022-12-15T12:28:33.384Z,7.77
2022-12-15T12:31:00.319Z,8.10
2022-12-15T12:33:29.616Z,8.25
2022-12-15T12:35:57.417Z,8.31
2022-12-15T12:38:26.933Z,8.35
2022-12-15T12:41:28.444Z,8.41
2022-12-15T12:43:58.243Z,8.55
2022-12-15T12:46:31.093Z,8.22
2022-12-15T12:49:05.061Z,8.38
2022-12-15T12:51:31.742Z,8.52
2022-12-15T12:53:58.255Z,8.47
2022-12-15T12:56:43.960Z,8.50
2022-12-15T12:59:29.889Z,8.42
2022-12-15T13:02:14.658Z,8.37
2022-12-15T13:04:41.854Z,8.38
2022-12-15T13:07:27.005Z,8.53
2022-12-15T13:10:02.494Z,8.73
2022-12-15T13:12:52.906Z,8.53
2022-12-15T13:15:29.618Z,8.48
2022-12-15T13:18:06.364Z,8.34
2022-12-15T13:20:33.122Z,8.37
2022-12-15T13:23:18.895Z,8.23
2022-12-15T13:26:05.481Z,8.28
2022-12-15T13:28:39.608Z,8.23
2022-12-15T13:31:21.424Z,8.17
2022-12-15T13:33:50.993Z,8.00
2022-12-15T13:36:36.003Z,7.70
2022-12-15T13:39:22.490Z,7.80
2022-12-15T13:42:31.540Z,8.19
2022-12-15T13:44:39.460Z,8.37
2022-12-15T13:47:06.865Z,8.38
2022-12-15T13:49:33.966Z,8.47
2022-12-15T13:52:00.816Z,8.53
2022-12-15T13:54:46.202Z,8.46
2022-12-15T13:57:14.026Z,8.51
2022-12-15T13:59:50.519Z,8.47
2022-12-15T14:02:23.313Z,8.41
2022-12-15T14:05:09.942Z,8.31
2022-12-15T14:07:36.222Z,8.33
2022-12-15T14:10:04.017Z,8.34
2022-12-15T14:12:30.269Z,8.30
2022-12-15T14:14:56.595Z,8.46
2022-12-15T14:17:22.873Z,8.42
2022-12-15T14:19:50.885Z,8.16
2022-12-15T14:25:13.760Z,8.02
2022-12-15T14:27:40.053Z,8.18
2022-12-15T14:30:15.823Z,8.05
2022-12-15T14:32:42.228Z,7.90
2022-12-15T14:35:17.921Z,7.88
2022-12-15T14:37:44.659Z,7.83
2022-12-15T14:40:15.769Z,7.94
2022-12-15T14:42:42.448Z,7.86
2022-12-15T14:45:17.185Z,7.84
2022-12-15T14:48:05.779Z,7.75
2022-12-15T14:50:33.748Z,7.86
2022-12-15T14:53:04.688Z,8.14
2022-12-15T14:55:31.085Z,8.12
2022-12-15T14:57:57.432Z,8.28
2022-12-15T15:00:28.297Z,8.27
2022-12-15T15:03:03.696Z,7.76
2022-12-15T15:03:14.309Z,8.11
2022-12-15T15:03:18.280Z,8.40
2022-12-15T15:05:46.545Z,8.56
2022-12-15T15:08:26.560Z,8.58
2022-12-15T15:10:56.386Z,8.66
2022-12-15T15:13:23.441Z,8.67
2022-12-15T15:15:53.130Z,8.52
2022-12-15T15:18:20.279Z,8.39
2022-12-15T15:20:49.529Z,8.39
2022-12-15T15:23:16.791Z,8.54
2022-12-15T15:25:49.188Z,8.65
2022-12-15T15:28:18.439Z,8.68
2022-12-15T15:30:48.912Z,8.54
2022-12-15T15:33:15.336Z,8.56
2022-12-15T15:35:41.836Z,8.31
2022-12-15T15:38:14.205Z,8.41
2022-12-15T15:40:40.480Z,8.53
2022-12-15T15:43:12.744Z,8.62
2022-12-15T15:45:40.117Z,8.69
2022-12-15T15:48:06.404Z,8.62
2022-12-15T15:50:32.872Z,8.47
2022-12-15T15:52:59.262Z,8.46
2022-12-15T15:55:26.941Z,8.50
2022-12-15T15:57:53.357Z,8.55
2022-12-15T16:00:21.331Z,8.47
2022-12-15T16:02:47.872Z,8.57
2022-12-15T16:05:14.485Z,8.59
2022-12-15T16:07:40.860Z,8.51
2022-12-15T16:10:14.126Z,8.54
2022-12-15T16:12:42.310Z,8.54
2022-12-15T16:15:14.701Z,8.62
2022-12-15T16:17:41.419Z,8.41
2022-12-15T16:20:08.385Z,8.38
2022-12-15T16:22:34.861Z,8.47
2022-12-15T16:25:01.179Z,8.43
2022-12-15T16:27:27.458Z,8.47
2022-12-15T16:29:53.730Z,8.49
2022-12-15T16:32:20.053Z,8.47
2022-12-15T16:34:46.650Z,8.53
2022-12-15T16:37:26.202Z,8.44
2022-12-15T16:39:52.859Z,8.12
2022-12-15T16:42:19.140Z,8.01
2022-12-15T16:44:45.416Z,8.17
2022-12-15T16:47:11.739Z,8.36
2022-12-15T16:49:40.333Z,8.40
2022-12-15T16:52:08.113Z,8.13
2022-12-15T16:54:34.367Z,8.02
2022-12-15T16:57:00.641Z,8.12
2022-12-15T16:59:35.262Z,8.00
2022-12-15T17:02:02.310Z,8.04
2022-12-15T17:04:28.709Z,8.34
2022-12-15T17:06:54.977Z,8.42
2022-12-15T17:09:22.097Z,8.22
2022-12-15T17:11:48.380Z,8.25
2022-12-15T17:14:15.686Z,8.34
2022-12-15T17:16:41.973Z,8.27
2022-12-15T17:19:08.613Z,8.31
2022-12-15T17:21:35.459Z,8.42
2022-12-15T17:24:06.256Z,8.41
2022-12-15T17:26:33.308Z,8.42
2022-12-15T17:29:00.839Z,8.42
2022-12-15T17:31:33.239Z,8.42
2022-12-15T17:34:02.451Z,8.37
2022-12-15T17:36:28.758Z,8.34
2022-12-15T17:38:55.690Z,8.37
2022-12-15T17:41:50.369Z,8.42
2022-12-15T17:44:33.728Z,8.50
2022-12-15T17:47:02.016Z,8.51
2022-12-15T17:49:34.737Z,8.53
2022-12-15T17:52:02.256Z,8.55
2022-12-15T17:54:29.611Z,8.40
2022-12-15T17:56:55.888Z,8.44
2022-12-15T17:59:22.366Z,8.54
2022-12-15T18:01:49.038Z,8.47
2022-12-15T18:04:15.633Z,8.53
2022-12-15T18:06:42.145Z,8.57
2022-12-15T18:09:17.792Z,8.47
2022-12-15T18:11:46.471Z,8.50
2022-12-15T18:14:14.140Z,8.46
2022-12-15T18:16:40.751Z,8.45
2022-12-15T18:19:07.142Z,8.59
2022-12-15T18:21:33.423Z,8.47
2022-12-15T18:23:59.698Z,8.45
2022-12-15T18:26:25.956Z,8.55
2022-12-15T18:28:52.250Z,8.67
2022-12-15T18:31:27.715Z,8.58
2022-12-15T18:34:00.989Z,8.57
2022-12-15T18:36:30.494Z,8.43
2022-12-15T18:38:56.776Z,8.32
2022-12-15T18:41:23.038Z,8.25
2022-12-15T18:43:49.328Z,8.26
2022-12-15T18:46:15.869Z,8.23
2022-12-15T18:48:42.424Z,8.07
2022-12-15T18:51:15.298Z,7.99
2022-12-15T18:53:41.597Z,8.08
2022-12-15T18:56:08.731Z,8.28
2022-12-15T18:58:35.676Z,8.30
2022-12-15T19:01:02.227Z,8.25
2022-12-15T19:03:28.665Z,8.24
2022-12-15T19:05:58.098Z,8.37
2022-12-15T19:08:27.386Z,8.41
2022-12-15T19:10:53.676Z,8.30
2022-12-15T19:13:20.819Z,8.38
2022-12-15T19:15:47.153Z,8.47
2022-12-15T19:18:35.652Z,8.40
2022-12-15T19:21:48.001Z,8.39
2022-12-15T19:24:18.226Z,8.47
2022-12-15T19:26:44.501Z,8.57
2022-12-15T19:29:17.670Z,8.54
2022-12-15T19:31:44.175Z,8.42
2022-12-15T19:34:10.853Z,8.33
2022-12-15T19:36:37.167Z,8.28
2022-12-15T19:39:03.469Z,8.26
2022-12-15T19:41:30.570Z,8.05
2022-12-15T19:43:56.854Z,8.02
2022-12-15T19:46:23.758Z,7.99
2022-12-15T19:48:50.205Z,8.08
2022-12-15T19:51:17.207Z,8.23
2022-12-15T19:53:44.183Z,8.07
2022-12-15T19:56:11.455Z,7.98
2022-12-15T19:58:38.620Z,8.12
2022-12-15T20:01:05.938Z,8.23
2022-12-15T20:03:32.950Z,8.14
2022-12-15T20:05:59.915Z,8.09
2022-12-15T20:08:29.989Z,8.16
2022-12-15T20:10:56.315Z,8.18
2022-12-15T20:13:22.660Z,8.22
2022-12-15T20:15:48.975Z,8.31
2022-12-15T20:18:15.357Z,8.33
2022-12-15T20:20:41.728Z,8.31
2022-12-15T20:23:12.519Z,8.36
2022-12-15T20:25:38.798Z,8.15
2022-12-15T20:28:05.107Z,8.26
2022-12-15T20:30:35.320Z,8.42
2022-12-15T20:33:04.364Z,8.41
2022-12-15T20:35:32.904Z,8.28
2022-12-15T20:37:59.305Z,8.30
2022-12-15T20:40:26.572Z,8.16
2022-12-15T20:42:52.924Z,8.00
2022-12-15T20:45:19.972Z,8.14
2022-12-15T20:47:46.488Z,8.02
2022-12-15T20:50:26.883Z,8.15
2022-12-15T20:52:53.221Z,8.16
2022-12-15T20:55:21.443Z,8.22
2022-12-15T20:57:47.959Z,8.39
2022-12-15T21:00:14.448Z,8.44
2022-12-15T21:02:40.868Z,8.09
2022-12-15T21:05:08.272Z,7.77
2022-12-15T21:07:34.564Z,7.96
2022-12-15T21:10:00.893Z,7.97
2022-12-15T21:12:27.450Z,7.92
2022-12-15T21:14:54.150Z,7.95
2022-12-15T21:17:21.058Z,7.99
2022-12-15T21:19:47.395Z,7.96
2022-12-15T21:22:23.248Z,7.88
2022-12-15T21:24:49.873Z,7.86
2022-12-15T21:27:16.750Z,7.82
2022-12-15T21:29:46.102Z,7.92
2022-12-15T21:32:16.863Z,7.91
2022-12-15T21:34:43.141Z,7.82
2022-12-15T21:37:17.487Z,7.68
2022-12-15T21:39:43.760Z,7.48
2022-12-15T21:42:14.071Z,7.36
2022-12-15T21:44:41.474Z,7.39
2022-12-15T21:47:47.202Z,7.51
2022-12-15T21:50:13.961Z,7.51
2022-12-15T21:52:40.218Z,7.37
2022-12-15T21:55:13.954Z,7.46
2022-12-15T21:57:40.315Z,7.69
2022-12-15T22:00:13.359Z,7.86
2022-12-15T22:02:39.733Z,7.77
2022-12-15T22:05:19.667Z,7.90
2022-12-15T22:07:45.990Z,7.78
2022-12-15T22:10:12.258Z,7.74
2022-12-15T22:12:38.533Z,7.69
2022-12-15T22:15:12.103Z,7.65
2022-12-15T22:17:38.356Z,7.52
2022-12-15T22:20:30.801Z,7.55
2022-12-15T22:22:57.296Z,7.60
2022-12-15T22:25:24.190Z,7.33
2022-12-15T22:27:50.476Z,7.34
2022-12-15T22:30:19.401Z,7.43
2022-12-15T22:32:45.708Z,7.47
2022-12-15T22:35:18.990Z,7.47
2022-12-15T22:37:45.468Z,7.53
2022-12-15T22:40:12.107Z,7.63
2022-12-15T22:42:38.876Z,7.62
2022-12-15T22:45:05.828Z,7.72
2022-12-15T22:47:32.248Z,7.77
2022-12-15T22:49:58.525Z,7.87
2022-12-15T22:52:24.789Z,7.96
2022-12-15T22:54:52.874Z,7.87
2022-12-15T22:57:25.867Z,7.77
2022-12-15T22:59:53.785Z,7.80
2022-12-15T23:02:20.942Z,7.91
2022-12-15T23:04:47.237Z,7.83
2022-12-15T23:07:13.699Z,7.83
2022-12-15T23:09:39.980Z,7.86
2022-12-15T23:12:06.284Z,7.80
2022-12-15T23:14:51.139Z,7.75
2022-12-15T23:17:17.905Z,7.69
2022-12-15T23:19:44.576Z,7.62
2022-12-15T23:22:10.844Z,7.76
2022-12-15T23:24:37.118Z,7.91
2022-12-15T23:27:03.395Z,8.00
2022-12-15T23:29:29.722Z,8.08
2022-12-15T23:31:55.997Z,8.14
2022-12-15T23:34:22.468Z,8.10
2022-12-15T23:36:48.790Z,7.99
2022-12-15T23:39:15.096Z,8.09
2022-12-15T23:41:41.552Z,7.99
2022-12-15T23:44:07.827Z,7.88
2022-12-15T23:46:34.618Z,7.73
2022-12-15T23:49:01.113Z,7.77
2022-12-15T23:51:27.401Z,7.67
2022-12-15T23:53:53.714Z,7.62
2022-12-15T23:56:22.480Z,7.71
2022-12-15T23:58:53.521Z,7.62
